sensor_id;sensor_type;location;lat;lon;timestamp;P1;durP1;ratioP1;P2;durP2;ratioP2
67696;SDS011;54486;51.442;6.778;2023-08-06T00:01:20;7.78;;;3.22;;
67696;SDS011;54486;51.442;6.778;2023-08-06T00:03:51;9.20;;;3.40;;
67696;SDS011;54486;51.442;6.778;2023-08-06T00:06:22;7.57;;;3.17;;
67696;SDS011;54486;51.442;6.778;2023-08-06T00:08:54;8.02;;;3.13;;
67696;SDS011;54486;51.442;6.778;2023-08-06T00:11:24;8.43;;;3.08;;
67696;SDS011;54486;51.442;6.778;2023-08-06T00:13:54;8.75;;;3.50;;
67696;SDS011;54486;51.442;6.778;2023-08-06T00:16:23;7.90;;;3.13;;
67696;SDS011;54486;51.442;6.778;2023-08-06T00:18:51;8.00;;;3.30;;
67696;SDS011;54486;51.442;6.778;2023-08-06T00:21:18;7.88;;;3.38;;
67696;SDS011;54486;51.442;6.778;2023-08-06T00:23:47;7.93;;;3.25;;
67696;SDS011;54486;51.442;6.778;2023-08-06T00:26:16;8.02;;;3.70;;
67696;SDS011;54486;51.442;6.778;2023-08-06T00:28:45;7.67;;;3.07;;
67696;SDS011;54486;51.442;6.778;2023-08-06T00:31:12;8.10;;;3.20;;
67696;SDS011;54486;51.442;6.778;2023-08-06T00:33:39;9.37;;;3.60;;
67696;SDS011;54486;51.442;6.778;2023-08-06T00:36:07;7.90;;;3.10;;
67696;SDS011;54486;51.442;6.778;2023-08-06T00:38:35;7.45;;;3.10;;
67696;SDS011;54486;51.442;6.778;2023-08-06T00:41:02;8.52;;;3.05;;
67696;SDS011;54486;51.442;6.778;2023-08-06T00:43:33;8.73;;;3.43;;
67696;SDS011;54486;51.442;6.778;2023-08-06T00:46:02;8.13;;;3.25;;
67696;SDS011;54486;51.442;6.778;2023-08-06T00:48:29;8.88;;;3.63;;
67696;SDS011;54486;51.442;6.778;2023-08-06T00:50:58;7.97;;;3.20;;
67696;SDS011;54486;51.442;6.778;2023-08-06T00:53:27;8.35;;;3.10;;
67696;SDS011;54486;51.442;6.778;2023-08-06T00:55:54;8.07;;;2.88;;
67696;SDS011;54486;51.442;6.778;2023-08-06T00:58:21;8.77;;;3.17;;
67696;SDS011;54486;51.442;6.778;2023-08-06T01:00:49;9.25;;;3.58;;
67696;SDS011;54486;51.442;6.778;2023-08-06T01:03:17;8.98;;;3.03;;
67696;SDS011;54486;51.442;6.778;2023-08-06T01:05:44;7.63;;;3.35;;
67696;SDS011;54486;51.442;6.778;2023-08-06T01:08:25;8.10;;;3.10;;
67696;SDS011;54486;51.442;6.778;2023-08-06T01:13:43;8.47;;;3.10;;
67696;SDS011;54486;51.442;6.778;2023-08-06T01:16:17;8.33;;;3.33;;
67696;SDS011;54486;51.442;6.778;2023-08-06T01:18:46;7.50;;;2.85;;
67696;SDS011;54486;51.442;6.778;2023-08-06T01:21:16;7.50;;;3.33;;
67696;SDS011;54486;51.442;6.778;2023-08-06T01:23:45;8.50;;;3.08;;
67696;SDS011;54486;51.442;6.778;2023-08-06T01:26:15;9.30;;;3.10;;
67696;SDS011;54486;51.442;6.778;2023-08-06T01:28:58;7.88;;;3.33;;
67696;SDS011;54486;51.442;6.778;2023-08-06T01:31:33;8.60;;;3.20;;
67696;SDS011;54486;51.442;6.778;2023-08-06T01:34:05;7.50;;;3.10;;
67696;SDS011;54486;51.442;6.778;2023-08-06T01:36:36;8.75;;;2.80;;
67696;SDS011;54486;51.442;6.778;2023-08-06T01:39:04;8.75;;;2.90;;
67696;SDS011;54486;51.442;6.778;2023-08-06T01:41:32;7.55;;;3.00;;
67696;SDS011;54486;51.442;6.778;2023-08-06T01:43:59;8.00;;;2.75;;
67696;SDS011;54486;51.442;6.778;2023-08-06T01:46:26;8.68;;;3.05;;
67696;SDS011;54486;51.442;6.778;2023-08-06T01:48:53;8.63;;;3.20;;
67696;SDS011;54486;51.442;6.778;2023-08-06T01:51:21;7.25;;;3.03;;
67696;SDS011;54486;51.442;6.778;2023-08-06T01:53:48;7.82;;;3.15;;
67696;SDS011;54486;51.442;6.778;2023-08-06T01:56:15;7.32;;;2.90;;
67696;SDS011;54486;51.442;6.778;2023-08-06T01:58:42;7.95;;;2.75;;
67696;SDS011;54486;51.442;6.778;2023-08-06T02:01:10;8.18;;;2.90;;
67696;SDS011;54486;51.442;6.778;2023-08-06T02:03:38;8.43;;;3.17;;
67696;SDS011;54486;51.442;6.778;2023-08-06T02:06:05;7.90;;;3.00;;
67696;SDS011;54486;51.442;6.778;2023-08-06T02:08:32;7.75;;;3.25;;
67696;SDS011;54486;51.442;6.778;2023-08-06T02:10:59;8.77;;;3.05;;
67696;SDS011;54486;51.442;6.778;2023-08-06T02:13:26;9.07;;;3.50;;
67696;SDS011;54486;51.442;6.778;2023-08-06T02:15:53;7.20;;;2.72;;
67696;SDS011;54486;51.442;6.778;2023-08-06T02:18:21;8.02;;;3.10;;
67696;SDS011;54486;51.442;6.778;2023-08-06T02:20:57;8.60;;;3.10;;
67696;SDS011;54486;51.442;6.778;2023-08-06T02:23:25;8.50;;;3.08;;
67696;SDS011;54486;51.442;6.778;2023-08-06T02:26:03;8.30;;;3.20;;
67696;SDS011;54486;51.442;6.778;2023-08-06T02:28:31;8.85;;;3.08;;
67696;SDS011;54486;51.442;6.778;2023-08-06T02:30:58;7.57;;;2.90;;
67696;SDS011;54486;51.442;6.778;2023-08-06T02:33:25;7.70;;;3.17;;
67696;SDS011;54486;51.442;6.778;2023-08-06T02:35:58;8.40;;;3.13;;
67696;SDS011;54486;51.442;6.778;2023-08-06T02:38:27;7.93;;;3.03;;
67696;SDS011;54486;51.442;6.778;2023-08-06T02:40:54;9.02;;;2.97;;
67696;SDS011;54486;51.442;6.778;2023-08-06T02:43:21;8.10;;;2.70;;
67696;SDS011;54486;51.442;6.778;2023-08-06T02:45:48;7.90;;;3.15;;
67696;SDS011;54486;51.442;6.778;2023-08-06T02:48:15;9.90;;;3.60;;
67696;SDS011;54486;51.442;6.778;2023-08-06T02:50:43;7.75;;;2.97;;
67696;SDS011;54486;51.442;6.778;2023-08-06T02:53:10;8.63;;;3.15;;
67696;SDS011;54486;51.442;6.778;2023-08-06T02:55:37;9.25;;;3.00;;
67696;SDS011;54486;51.442;6.778;2023-08-06T02:58:04;7.75;;;2.80;;
67696;SDS011;54486;51.442;6.778;2023-08-06T03:00:31;8.07;;;2.83;;
67696;SDS011;54486;51.442;6.778;2023-08-06T03:02:58;9.03;;;3.10;;
67696;SDS011;54486;51.442;6.778;2023-08-06T03:05:24;8.00;;;2.50;;
67696;SDS011;54486;51.442;6.778;2023-08-06T03:07:51;8.70;;;2.95;;
67696;SDS011;54486;51.442;6.778;2023-08-06T03:10:18;7.38;;;2.70;;
67696;SDS011;54486;51.442;6.778;2023-08-06T03:12:47;7.93;;;3.03;;
67696;SDS011;54486;51.442;6.778;2023-08-06T03:15:14;8.77;;;3.08;;
67696;SDS011;54486;51.442;6.778;2023-08-06T03:17:42;7.57;;;2.83;;
67696;SDS011;54486;51.442;6.778;2023-08-06T03:20:09;7.87;;;2.90;;
67696;SDS011;54486;51.442;6.778;2023-08-06T03:22:36;8.10;;;2.72;;
67696;SDS011;54486;51.442;6.778;2023-08-06T03:25:04;8.05;;;3.15;;
67696;SDS011;54486;51.442;6.778;2023-08-06T03:27:32;7.93;;;3.20;;
67696;SDS011;54486;51.442;6.778;2023-08-06T03:29:59;9.68;;;3.20;;
67696;SDS011;54486;51.442;6.778;2023-08-06T03:32:27;7.97;;;2.93;;
67696;SDS011;54486;51.442;6.778;2023-08-06T03:34:54;8.93;;;3.05;;
67696;SDS011;54486;51.442;6.778;2023-08-06T03:37:21;10.00;;;3.10;;
67696;SDS011;54486;51.442;6.778;2023-08-06T03:39:49;8.17;;;3.00;;
67696;SDS011;54486;51.442;6.778;2023-08-06T03:42:16;8.18;;;3.40;;
67696;SDS011;54486;51.442;6.778;2023-08-06T03:44:45;8.20;;;3.03;;
67696;SDS011;54486;51.442;6.778;2023-08-06T03:47:11;8.85;;;3.00;;
67696;SDS011;54486;51.442;6.778;2023-08-06T03:49:39;7.93;;;3.10;;
67696;SDS011;54486;51.442;6.778;2023-08-06T03:52:07;8.65;;;2.80;;
67696;SDS011;54486;51.442;6.778;2023-08-06T03:54:34;8.40;;;3.00;;
67696;SDS011;54486;51.442;6.778;2023-08-06T03:57:01;8.90;;;3.13;;
67696;SDS011;54486;51.442;6.778;2023-08-06T03:59:29;8.80;;;3.23;;
67696;SDS011;54486;51.442;6.778;2023-08-06T04:01:56;9.68;;;3.28;;
67696;SDS011;54486;51.442;6.778;2023-08-06T04:04:23;7.53;;;3.05;;
67696;SDS011;54486;51.442;6.778;2023-08-06T04:06:50;8.40;;;3.20;;
67696;SDS011;54486;51.442;6.778;2023-08-06T04:09:17;9.38;;;3.42;;
67696;SDS011;54486;51.442;6.778;2023-08-06T04:11:44;7.73;;;3.13;;
67696;SDS011;54486;51.442;6.778;2023-08-06T04:14:10;8.93;;;3.17;;
67696;SDS011;54486;51.442;6.778;2023-08-06T04:16:38;7.60;;;3.22;;
67696;SDS011;54486;51.442;6.778;2023-08-06T04:19:04;10.40;;;3.20;;
67696;SDS011;54486;51.442;6.778;2023-08-06T04:21:31;7.97;;;3.10;;
67696;SDS011;54486;51.442;6.778;2023-08-06T04:23:59;7.45;;;3.13;;
67696;SDS011;54486;51.442;6.778;2023-08-06T04:26:26;10.67;;;3.20;;
67696;SDS011;54486;51.442;6.778;2023-08-06T04:28:55;8.35;;;3.28;;
67696;SDS011;54486;51.442;6.778;2023-08-06T04:31:22;8.80;;;3.13;;
67696;SDS011;54486;51.442;6.778;2023-08-06T04:33:50;8.35;;;3.00;;
67696;SDS011;54486;51.442;6.778;2023-08-06T04:36:17;7.90;;;3.08;;
67696;SDS011;54486;51.442;6.778;2023-08-06T04:38:44;7.85;;;3.13;;
67696;SDS011;54486;51.442;6.778;2023-08-06T04:41:14;9.60;;;3.42;;
67696;SDS011;54486;51.442;6.778;2023-08-06T04:43:41;8.48;;;3.05;;
67696;SDS011;54486;51.442;6.778;2023-08-06T04:46:08;7.68;;;2.90;;
67696;SDS011;54486;51.442;6.778;2023-08-06T04:48:34;8.80;;;3.20;;
67696;SDS011;54486;51.442;6.778;2023-08-06T04:51:01;7.40;;;2.90;;
67696;SDS011;54486;51.442;6.778;2023-08-06T04:53:29;7.90;;;3.00;;
67696;SDS011;54486;51.442;6.778;2023-08-06T04:55:55;8.43;;;3.17;;
67696;SDS011;54486;51.442;6.778;2023-08-06T04:58:23;8.07;;;2.63;;
67696;SDS011;54486;51.442;6.778;2023-08-06T05:00:50;9.00;;;3.05;;
67696;SDS011;54486;51.442;6.778;2023-08-06T05:03:17;7.47;;;2.85;;
67696;SDS011;54486;51.442;6.778;2023-08-06T05:05:45;7.47;;;2.88;;
67696;SDS011;54486;51.442;6.778;2023-08-06T05:08:14;9.50;;;3.30;;
67696;SDS011;54486;51.442;6.778;2023-08-06T05:10:45;8.85;;;3.10;;
67696;SDS011;54486;51.442;6.778;2023-08-06T05:13:12;7.65;;;2.90;;
67696;SDS011;54486;51.442;6.778;2023-08-06T05:15:39;7.65;;;2.95;;
67696;SDS011;54486;51.442;6.778;2023-08-06T05:18:09;7.72;;;2.90;;
67696;SDS011;54486;51.442;6.778;2023-08-06T05:20:39;7.90;;;3.07;;
67696;SDS011;54486;51.442;6.778;2023-08-06T05:23:07;6.60;;;2.40;;
67696;SDS011;54486;51.442;6.778;2023-08-06T05:25:35;7.43;;;3.00;;
67696;SDS011;54486;51.442;6.778;2023-08-06T05:28:02;7.97;;;2.67;;
67696;SDS011;54486;51.442;6.778;2023-08-06T05:30:29;7.93;;;2.90;;
67696;SDS011;54486;51.442;6.778;2023-08-06T05:32:57;7.47;;;2.90;;
67696;SDS011;54486;51.442;6.778;2023-08-06T05:35:24;8.07;;;2.75;;
67696;SDS011;54486;51.442;6.778;2023-08-06T05:37:51;7.30;;;2.78;;
67696;SDS011;54486;51.442;6.778;2023-08-06T05:40:18;7.10;;;2.78;;
67696;SDS011;54486;51.442;6.778;2023-08-06T05:42:45;8.00;;;2.55;;
67696;SDS011;54486;51.442;6.778;2023-08-06T05:45:12;7.85;;;2.70;;
67696;SDS011;54486;51.442;6.778;2023-08-06T05:47:40;7.40;;;2.50;;
67696;SDS011;54486;51.442;6.778;2023-08-06T05:50:07;7.00;;;2.60;;
67696;SDS011;54486;51.442;6.778;2023-08-06T05:52:35;7.28;;;2.60;;
67696;SDS011;54486;51.442;6.778;2023-08-06T05:55:02;8.73;;;2.50;;
67696;SDS011;54486;51.442;6.778;2023-08-06T05:57:29;7.80;;;2.67;;
67696;SDS011;54486;51.442;6.778;2023-08-06T05:59:56;7.15;;;2.60;;
67696;SDS011;54486;51.442;6.778;2023-08-06T06:02:24;7.82;;;2.80;;
67696;SDS011;54486;51.442;6.778;2023-08-06T06:04:50;7.30;;;3.10;;
67696;SDS011;54486;51.442;6.778;2023-08-06T06:07:18;7.70;;;2.53;;
67696;SDS011;54486;51.442;6.778;2023-08-06T06:09:46;7.75;;;2.38;;
67696;SDS011;54486;51.442;6.778;2023-08-06T06:12:12;7.53;;;2.58;;
67696;SDS011;54486;51.442;6.778;2023-08-06T06:14:39;6.97;;;2.40;;
67696;SDS011;54486;51.442;6.778;2023-08-06T06:17:06;7.43;;;2.30;;
67696;SDS011;54486;51.442;6.778;2023-08-06T06:19:33;7.63;;;2.40;;
67696;SDS011;54486;51.442;6.778;2023-08-06T06:22:00;7.85;;;2.22;;
67696;SDS011;54486;51.442;6.778;2023-08-06T06:24:27;8.45;;;2.50;;
67696;SDS011;54486;51.442;6.778;2023-08-06T06:26:54;6.95;;;2.60;;
67696;SDS011;54486;51.442;6.778;2023-08-06T06:29:22;7.13;;;2.20;;
67696;SDS011;54486;51.442;6.778;2023-08-06T06:31:49;7.28;;;2.47;;
67696;SDS011;54486;51.442;6.778;2023-08-06T06:34:16;6.70;;;2.57;;
67696;SDS011;54486;51.442;6.778;2023-08-06T06:36:43;8.68;;;2.85;;
67696;SDS011;54486;51.442;6.778;2023-08-06T06:39:09;7.40;;;2.40;;
67696;SDS011;54486;51.442;6.778;2023-08-06T06:41:37;8.63;;;2.22;;
67696;SDS011;54486;51.442;6.778;2023-08-06T06:44:05;6.78;;;2.30;;
67696;SDS011;54486;51.442;6.778;2023-08-06T06:46:32;7.93;;;2.38;;
67696;SDS011;54486;51.442;6.778;2023-08-06T06:48:59;8.52;;;2.45;;
67696;SDS011;54486;51.442;6.778;2023-08-06T06:51:26;8.20;;;2.40;;
67696;SDS011;54486;51.442;6.778;2023-08-06T06:53:54;8.95;;;2.95;;
67696;SDS011;54486;51.442;6.778;2023-08-06T06:56:21;7.20;;;2.63;;
67696;SDS011;54486;51.442;6.778;2023-08-06T06:58:48;7.53;;;2.88;;
67696;SDS011;54486;51.442;6.778;2023-08-06T07:01:15;8.30;;;3.10;;
67696;SDS011;54486;51.442;6.778;2023-08-06T07:03:42;8.50;;;2.90;;
67696;SDS011;54486;51.442;6.778;2023-08-06T07:06:10;8.95;;;3.65;;
67696;SDS011;54486;51.442;6.778;2023-08-06T07:08:39;8.50;;;3.50;;
67696;SDS011;54486;51.442;6.778;2023-08-06T07:11:06;8.02;;;3.53;;
67696;SDS011;54486;51.442;6.778;2023-08-06T07:13:34;8.95;;;3.72;;
67696;SDS011;54486;51.442;6.778;2023-08-06T07:16:01;7.90;;;3.10;;
67696;SDS011;54486;51.442;6.778;2023-08-06T07:18:28;7.90;;;3.25;;
67696;SDS011;54486;51.442;6.778;2023-08-06T07:20:56;7.65;;;2.88;;
67696;SDS011;54486;51.442;6.778;2023-08-06T07:23:24;7.13;;;2.80;;
67696;SDS011;54486;51.442;6.778;2023-08-06T07:25:52;7.82;;;3.00;;
67696;SDS011;54486;51.442;6.778;2023-08-06T07:28:19;7.70;;;2.92;;
67696;SDS011;54486;51.442;6.778;2023-08-06T07:30:47;8.03;;;2.97;;
67696;SDS011;54486;51.442;6.778;2023-08-06T07:33:14;7.60;;;3.08;;
67696;SDS011;54486;51.442;6.778;2023-08-06T07:35:42;7.95;;;3.10;;
67696;SDS011;54486;51.442;6.778;2023-08-06T07:38:10;7.75;;;3.03;;
67696;SDS011;54486;51.442;6.778;2023-08-06T07:40:38;8.55;;;3.05;;
67696;SDS011;54486;51.442;6.778;2023-08-06T07:43:05;7.47;;;3.03;;
67696;SDS011;54486;51.442;6.778;2023-08-06T07:45:35;8.90;;;3.55;;
67696;SDS011;54486;51.442;6.778;2023-08-06T07:48:03;7.00;;;3.00;;
67696;SDS011;54486;51.442;6.778;2023-08-06T07:50:30;7.60;;;2.90;;
67696;SDS011;54486;51.442;6.778;2023-08-06T07:52:58;8.38;;;3.20;;
67696;SDS011;54486;51.442;6.778;2023-08-06T07:55:26;8.00;;;3.30;;
67696;SDS011;54486;51.442;6.778;2023-08-06T07:57:54;9.35;;;4.45;;
67696;SDS011;54486;51.442;6.778;2023-08-06T08:00:21;9.13;;;4.05;;
67696;SDS011;54486;51.442;6.778;2023-08-06T08:02:48;10.25;;;4.60;;
67696;SDS011;54486;51.442;6.778;2023-08-06T08:05:15;12.02;;;5.88;;
67696;SDS011;54486;51.442;6.778;2023-08-06T08:07:42;12.32;;;6.50;;
67696;SDS011;54486;51.442;6.778;2023-08-06T08:10:11;12.73;;;6.63;;
67696;SDS011;54486;51.442;6.778;2023-08-06T08:12:38;12.48;;;7.25;;
67696;SDS011;54486;51.442;6.778;2023-08-06T08:15:06;10.27;;;5.68;;
67696;SDS011;54486;51.442;6.778;2023-08-06T08:17:33;9.43;;;5.18;;
67696;SDS011;54486;51.442;6.778;2023-08-06T08:20:02;9.82;;;4.93;;
67696;SDS011;54486;51.442;6.778;2023-08-06T08:22:30;8.65;;;3.90;;
67696;SDS011;54486;51.442;6.778;2023-08-06T08:24:56;9.95;;;4.28;;
67696;SDS011;54486;51.442;6.778;2023-08-06T08:27:23;7.93;;;3.80;;
67696;SDS011;54486;51.442;6.778;2023-08-06T08:29:51;10.02;;;4.00;;
67696;SDS011;54486;51.442;6.778;2023-08-06T08:32:18;8.10;;;3.22;;
67696;SDS011;54486;51.442;6.778;2023-08-06T08:34:45;7.50;;;3.03;;
67696;SDS011;54486;51.442;6.778;2023-08-06T08:37:13;8.00;;;3.13;;
67696;SDS011;54486;51.442;6.778;2023-08-06T08:39:40;7.80;;;3.05;;
67696;SDS011;54486;51.442;6.778;2023-08-06T08:42:08;8.13;;;3.00;;
67696;SDS011;54486;51.442;6.778;2023-08-06T08:44:39;7.70;;;3.00;;
67696;SDS011;54486;51.442;6.778;2023-08-06T08:47:06;8.98;;;3.33;;
67696;SDS011;54486;51.442;6.778;2023-08-06T08:49:36;8.43;;;3.17;;
67696;SDS011;54486;51.442;6.778;2023-08-06T08:52:04;8.82;;;3.22;;
67696;SDS011;54486;51.442;6.778;2023-08-06T08:54:37;7.45;;;3.03;;
67696;SDS011;54486;51.442;6.778;2023-08-06T08:57:06;8.23;;;3.00;;
67696;SDS011;54486;51.442;6.778;2023-08-06T08:59:33;7.80;;;3.10;;
67696;SDS011;54486;51.442;6.778;2023-08-06T09:02:01;8.05;;;3.30;;
67696;SDS011;54486;51.442;6.778;2023-08-06T09:04:29;9.88;;;3.63;;
67696;SDS011;54486;51.442;6.778;2023-08-06T09:07:00;9.55;;;3.45;;
67696;SDS011;54486;51.442;6.778;2023-08-06T09:09:31;7.95;;;3.13;;
67696;SDS011;54486;51.442;6.778;2023-08-06T09:12:01;8.27;;;3.08;;
67696;SDS011;54486;51.442;6.778;2023-08-06T09:14:32;9.15;;;3.80;;
67696;SDS011;54486;51.442;6.778;2023-08-06T09:16:59;10.48;;;4.05;;
67696;SDS011;54486;51.442;6.778;2023-08-06T09:19:26;10.05;;;3.60;;
67696;SDS011;54486;51.442;6.778;2023-08-06T09:21:54;7.68;;;2.50;;
67696;SDS011;54486;51.442;6.778;2023-08-06T09:24:23;7.80;;;2.70;;
67696;SDS011;54486;51.442;6.778;2023-08-06T09:26:50;7.20;;;2.00;;
67696;SDS011;54486;51.442;6.778;2023-08-06T09:29:17;7.68;;;2.45;;
67696;SDS011;54486;51.442;6.778;2023-08-06T09:31:45;6.60;;;2.40;;
67696;SDS011;54486;51.442;6.778;2023-08-06T09:34:17;7.88;;;2.33;;
67696;SDS011;54486;51.442;6.778;2023-08-06T09:36:46;7.82;;;2.92;;
67696;SDS011;54486;51.442;6.778;2023-08-06T09:39:29;7.43;;;2.88;;
67696;SDS011;54486;51.442;6.778;2023-08-06T09:41:57;10.27;;;3.20;;
67696;SDS011;54486;51.442;6.778;2023-08-06T09:44:26;10.45;;;4.38;;
67696;SDS011;54486;51.442;6.778;2023-08-06T09:46:56;9.45;;;4.18;;
67696;SDS011;54486;51.442;6.778;2023-08-06T09:52:00;8.85;;;3.42;;
67696;SDS011;54486;51.442;6.778;2023-08-06T09:54:27;7.78;;;3.40;;
67696;SDS011;54486;51.442;6.778;2023-08-06T09:56:56;8.90;;;3.30;;
67696;SDS011;54486;51.442;6.778;2023-08-06T09:59:24;8.75;;;4.07;;
67696;SDS011;54486;51.442;6.778;2023-08-06T10:01:52;10.68;;;4.20;;
67696;SDS011;54486;51.442;6.778;2023-08-06T10:04:22;9.00;;;4.28;;
67696;SDS011;54486;51.442;6.778;2023-08-06T10:06:55;8.98;;;4.47;;
67696;SDS011;54486;51.442;6.778;2023-08-06T10:09:23;9.68;;;4.63;;
67696;SDS011;54486;51.442;6.778;2023-08-06T10:11:51;9.80;;;5.13;;
67696;SDS011;54486;51.442;6.778;2023-08-06T10:14:25;9.68;;;5.22;;
67696;SDS011;54486;51.442;6.778;2023-08-06T10:16:55;9.20;;;4.75;;
67696;SDS011;54486;51.442;6.778;2023-08-06T10:19:24;10.13;;;5.93;;
67696;SDS011;54486;51.442;6.778;2023-08-06T10:24:47;10.15;;;6.00;;
67696;SDS011;54486;51.442;6.778;2023-08-06T10:27:23;13.20;;;7.47;;
67696;SDS011;54486;51.442;6.778;2023-08-06T10:32:54;12.73;;;8.30;;
67696;SDS011;54486;51.442;6.778;2023-08-06T10:35:27;12.88;;;7.45;;
67696;SDS011;54486;51.442;6.778;2023-08-06T10:38:17;12.25;;;6.70;;
67696;SDS011;54486;51.442;6.778;2023-08-06T10:40:50;11.68;;;6.68;;
67696;SDS011;54486;51.442;6.778;2023-08-06T10:43:26;12.93;;;7.00;;
67696;SDS011;54486;51.442;6.778;2023-08-06T10:46:00;11.05;;;6.47;;
67696;SDS011;54486;51.442;6.778;2023-08-06T10:48:39;10.65;;;6.18;;
67696;SDS011;54486;51.442;6.778;2023-08-06T10:51:08;8.35;;;3.97;;
67696;SDS011;54486;51.442;6.778;2023-08-06T10:53:37;7.28;;;2.42;;
67696;SDS011;54486;51.442;6.778;2023-08-06T10:56:14;5.50;;;1.58;;
67696;SDS011;54486;51.442;6.778;2023-08-06T10:58:46;6.45;;;1.60;;
67696;SDS011;54486;51.442;6.778;2023-08-06T11:01:14;5.50;;;1.40;;
67696;SDS011;54486;51.442;6.778;2023-08-06T11:03:45;4.85;;;1.27;;
67696;SDS011;54486;51.442;6.778;2023-08-06T11:06:16;4.95;;;1.40;;
67696;SDS011;54486;51.442;6.778;2023-08-06T11:08:51;5.93;;;1.40;;
67696;SDS011;54486;51.442;6.778;2023-08-06T11:11:21;4.30;;;1.10;;
67696;SDS011;54486;51.442;6.778;2023-08-06T11:13:50;4.63;;;1.20;;
67696;SDS011;54486;51.442;6.778;2023-08-06T11:16:20;4.88;;;1.17;;
67696;SDS011;54486;51.442;6.778;2023-08-06T11:18:50;4.20;;;1.30;;
67696;SDS011;54486;51.442;6.778;2023-08-06T11:21:20;4.50;;;1.00;;
67696;SDS011;54486;51.442;6.778;2023-08-06T11:23:48;7.03;;;1.80;;
67696;SDS011;54486;51.442;6.778;2023-08-06T11:26:22;5.63;;;1.50;;
67696;SDS011;54486;51.442;6.778;2023-08-06T11:28:51;4.68;;;1.30;;
67696;SDS011;54486;51.442;6.778;2023-08-06T11:31:19;5.40;;;1.67;;
67696;SDS011;54486;51.442;6.778;2023-08-06T11:33:53;6.25;;;1.50;;
67696;SDS011;54486;51.442;6.778;2023-08-06T11:36:33;5.65;;;1.58;;
67696;SDS011;54486;51.442;6.778;2023-08-06T11:39:01;5.35;;;1.63;;
67696;SDS011;54486;51.442;6.778;2023-08-06T11:41:34;5.40;;;1.42;;
67696;SDS011;54486;51.442;6.778;2023-08-06T11:44:04;5.40;;;1.60;;
67696;SDS011;54486;51.442;6.778;2023-08-06T11:46:51;6.00;;;1.67;;
67696;SDS011;54486;51.442;6.778;2023-08-06T11:49:20;5.50;;;1.60;;
67696;SDS011;54486;51.442;6.778;2023-08-06T11:51:48;5.47;;;1.42;;
67696;SDS011;54486;51.442;6.778;2023-08-06T11:54:16;5.25;;;1.25;;
67696;SDS011;54486;51.442;6.778;2023-08-06T11:57:00;4.85;;;1.25;;
67696;SDS011;54486;51.442;6.778;2023-08-06T11:59:29;4.85;;;1.30;;
67696;SDS011;54486;51.442;6.778;2023-08-06T12:01:56;5.43;;;1.50;;
67696;SDS011;54486;51.442;6.778;2023-08-06T12:04:23;7.22;;;1.88;;
67696;SDS011;54486;51.442;6.778;2023-08-06T12:06:51;4.72;;;1.23;;
67696;SDS011;54486;51.442;6.778;2023-08-06T12:09:20;4.70;;;1.27;;
67696;SDS011;54486;51.442;6.778;2023-08-06T12:11:47;5.00;;;1.40;;
67696;SDS011;54486;51.442;6.778;2023-08-06T12:14:14;5.45;;;1.25;;
67696;SDS011;54486;51.442;6.778;2023-08-06T12:16:41;4.20;;;1.10;;
67696;SDS011;54486;51.442;6.778;2023-08-06T12:19:09;4.95;;;1.40;;
67696;SDS011;54486;51.442;6.778;2023-08-06T12:21:35;4.10;;;1.40;;
67696;SDS011;54486;51.442;6.778;2023-08-06T12:24:02;4.95;;;1.10;;
67696;SDS011;54486;51.442;6.778;2023-08-06T12:26:29;5.28;;;1.48;;
67696;SDS011;54486;51.442;6.778;2023-08-06T12:28:56;5.95;;;1.65;;
67696;SDS011;54486;51.442;6.778;2023-08-06T12:31:24;5.05;;;1.42;;
67696;SDS011;54486;51.442;6.778;2023-08-06T12:33:51;5.43;;;1.58;;
67696;SDS011;54486;51.442;6.778;2023-08-06T12:36:18;5.40;;;1.38;;
67696;SDS011;54486;51.442;6.778;2023-08-06T12:38:44;5.22;;;1.40;;
67696;SDS011;54486;51.442;6.778;2023-08-06T12:41:12;6.38;;;1.60;;
67696;SDS011;54486;51.442;6.778;2023-08-06T12:43:39;5.97;;;2.20;;
67696;SDS011;54486;51.442;6.778;2023-08-06T12:46:06;5.70;;;1.77;;
67696;SDS011;54486;51.442;6.778;2023-08-06T12:48:33;6.05;;;2.00;;
67696;SDS011;54486;51.442;6.778;2023-08-06T12:51:00;5.75;;;1.73;;
67696;SDS011;54486;51.442;6.778;2023-08-06T12:53:27;6.10;;;1.90;;
67696;SDS011;54486;51.442;6.778;2023-08-06T12:55:53;5.78;;;1.98;;
67696;SDS011;54486;51.442;6.778;2023-08-06T12:58:20;6.23;;;1.90;;
67696;SDS011;54486;51.442;6.778;2023-08-06T13:00:48;5.57;;;1.90;;
67696;SDS011;54486;51.442;6.778;2023-08-06T13:03:15;6.43;;;2.17;;
67696;SDS011;54486;51.442;6.778;2023-08-06T13:05:43;6.50;;;2.22;;
67696;SDS011;54486;51.442;6.778;2023-08-06T13:08:12;7.10;;;2.10;;
67696;SDS011;54486;51.442;6.778;2023-08-06T13:10:39;7.50;;;2.50;;
67696;SDS011;54486;51.442;6.778;2023-08-06T13:13:07;6.90;;;2.42;;
67696;SDS011;54486;51.442;6.778;2023-08-06T13:15:33;6.75;;;2.40;;
67696;SDS011;54486;51.442;6.778;2023-08-06T13:18:01;8.20;;;2.38;;
67696;SDS011;54486;51.442;6.778;2023-08-06T13:20:30;7.90;;;2.85;;
67696;SDS011;54486;51.442;6.778;2023-08-06T13:22:58;8.20;;;2.87;;
67696;SDS011;54486;51.442;6.778;2023-08-06T13:25:25;6.72;;;2.35;;
67696;SDS011;54486;51.442;6.778;2023-08-06T13:27:52;7.90;;;2.87;;
67696;SDS011;54486;51.442;6.778;2023-08-06T13:30:19;7.43;;;2.90;;
67696;SDS011;54486;51.442;6.778;2023-08-06T13:32:47;7.70;;;2.70;;
67696;SDS011;54486;51.442;6.778;2023-08-06T13:35:14;7.80;;;2.53;;
67696;SDS011;54486;51.442;6.778;2023-08-06T13:37:41;6.85;;;2.45;;
67696;SDS011;54486;51.442;6.778;2023-08-06T13:40:08;6.88;;;2.40;;
67696;SDS011;54486;51.442;6.778;2023-08-06T13:42:35;7.28;;;2.60;;
67696;SDS011;54486;51.442;6.778;2023-08-06T13:45:03;6.47;;;2.13;;
67696;SDS011;54486;51.442;6.778;2023-08-06T13:47:30;6.75;;;2.13;;
67696;SDS011;54486;51.442;6.778;2023-08-06T13:49:58;7.55;;;2.28;;
67696;SDS011;54486;51.442;6.778;2023-08-06T13:52:25;6.80;;;2.30;;
67696;SDS011;54486;51.442;6.778;2023-08-06T13:54:53;6.03;;;1.90;;
67696;SDS011;54486;51.442;6.778;2023-08-06T13:57:20;6.90;;;2.10;;
67696;SDS011;54486;51.442;6.778;2023-08-06T13:59:47;7.73;;;2.10;;
67696;SDS011;54486;51.442;6.778;2023-08-06T14:02:14;6.82;;;2.00;;
67696;SDS011;54486;51.442;6.778;2023-08-06T14:04:42;7.10;;;2.00;;
67696;SDS011;54486;51.442;6.778;2023-08-06T14:07:09;7.10;;;2.25;;
67696;SDS011;54486;51.442;6.778;2023-08-06T14:09:36;6.28;;;2.03;;
67696;SDS011;54486;51.442;6.778;2023-08-06T14:12:04;6.88;;;2.05;;
67696;SDS011;54486;51.442;6.778;2023-08-06T14:14:31;6.78;;;2.17;;
67696;SDS011;54486;51.442;6.778;2023-08-06T14:16:58;5.82;;;1.90;;
67696;SDS011;54486;51.442;6.778;2023-08-06T14:19:26;7.47;;;2.10;;
67696;SDS011;54486;51.442;6.778;2023-08-06T14:21:54;7.50;;;2.20;;
67696;SDS011;54486;51.442;6.778;2023-08-06T14:24:22;7.28;;;2.38;;
67696;SDS011;54486;51.442;6.778;2023-08-06T14:26:50;6.35;;;2.10;;
67696;SDS011;54486;51.442;6.778;2023-08-06T14:29:16;9.10;;;1.83;;
67696;SDS011;54486;51.442;6.778;2023-08-06T14:31:43;6.43;;;1.90;;
67696;SDS011;54486;51.442;6.778;2023-08-06T14:34:11;6.32;;;2.00;;
67696;SDS011;54486;51.442;6.778;2023-08-06T14:36:38;7.00;;;2.00;;
67696;SDS011;54486;51.442;6.778;2023-08-06T14:39:05;6.40;;;1.97;;
67696;SDS011;54486;51.442;6.778;2023-08-06T14:41:33;6.10;;;2.10;;
67696;SDS011;54486;51.442;6.778;2023-08-06T14:44:00;7.27;;;2.23;;
67696;SDS011;54486;51.442;6.778;2023-08-06T14:46:27;6.38;;;2.10;;
67696;SDS011;54486;51.442;6.778;2023-08-06T14:48:54;6.33;;;1.80;;
67696;SDS011;54486;51.442;6.778;2023-08-06T14:51:21;5.78;;;1.67;;
67696;SDS011;54486;51.442;6.778;2023-08-06T14:53:49;5.65;;;2.00;;
67696;SDS011;54486;51.442;6.778;2023-08-06T14:56:16;6.20;;;1.70;;
67696;SDS011;54486;51.442;6.778;2023-08-06T14:58:42;6.35;;;1.77;;
67696;SDS011;54486;51.442;6.778;2023-08-06T15:01:10;6.57;;;1.60;;
67696;SDS011;54486;51.442;6.778;2023-08-06T15:03:37;5.82;;;1.70;;
67696;SDS011;54486;51.442;6.778;2023-08-06T15:06:04;6.85;;;1.70;;